EWR weather

Newark Liberty International Airport
Newark, New Jersey, United States

Public forecast

Using degrees Fahrenheit for public forecast. Weather courtesy of forecast.io.

METAR (pilot weather report)

Retrieved 2018/10/17 03:51 UTC (1 hour ago):

KEWR 170351Z 25007KT 10SM FEW200 BKN250 09/03 A3006 RMK AO2 SLP179 T00890028

TAF (pilot weather forecast)

Forecast is more than 12 hours old.

Retrieved 2018/10/16 00:36 UTC (1 day ago):

TAF KEWR 162335Z 1700/1806 23010KT P6SM BKN250 FM170200 24007KT P6SM SCT250 FM171400 26015G22KT P6SM SCT260 FM171700 27020G29KT P6SM SCT060 FM171900 28022G30KT P6SM BKN060 FM172300 29017G25KT P6SM SCT060